Picayune, MS

23:01 CDT le 28 mai 2015 (GMT -0500)
Hide_A_Way Lake ~OWX | | Change Station
CLOSE
Current Station
Stations météorologiques personnelles
Location: Carriere, MS
Altitude: 100 ft
Stations météo à proximité

Alt. 100 ft 30.58 °N, 89.65 °W | Updated 1 second ago

Ciel dégagé
Ciel dégagé
73.0 ° F
Paraît 70 ° F
N
0.0
Vent Variable Vent de ESE
Gusts 0.0 mph

Aujourd'hui
Haut(e) -- | Bas -- ° F
--% Risque de précip.
Hier
Haut(e) -- | Bas -- ° F
Precip. -- pouce
5:57 AM 7:54 PM
Lune gibbeuse croissante, 80% visible
Pression 30.07 pouce
Visibilité 10.0 Miles terrestres
Nuages Ciel dégagé
indice de chaleur 70 ° F
Point de rosée 70 ° F
Humidité 91%
Précipitations pouce
Profondeur de la couche neigeuse Non disponible.
UV 0.0 sur 12
Pollen 3.60 sur 12
Qualité de l'air Non disponible.
Flu Activity No Activity
METAR KASD 290353Z AUTO 12004KT 10SM CLR 24/23 A3007 RMK AO2 SLP182 T02440233

More Conditions Fewer Conditions

Pression 30.07 pouce
Visibilité 10.0 Miles terrestres
Nuages Ciel dégagé
indice de chaleur 70 ° F
Point de rosée 70 ° F
Humidité 91%
Précipitations pouce
Profondeur de la couche neigeuse Non disponible.
UV 0.0 sur 12
Pollen 3.60 sur 12
Qualité de l'air Non disponible.
Flu Activity No Activity
METAR KASD 290353Z AUTO 12004KT 10SM CLR 24/23 A3007 RMK AO2 SLP182 T02440233

More Conditions Fewer Conditions

10-Day Weather Forecast

Almanac

Astronomie

May. 28, 2015 Lever Coucher
Temps réel
Crépuscule civil
Crépuscule nautique
Crépuscule astronomique
Lune
Durée de lumière visible
Longueur du jour
Tomorrow will be .
, % of the Moon is Illuminated

Extrêmes aujourd'hui

State Highs State Lows

Community

WunderPhotos

Upload Photos

1,825,181 Photos téléchargées !

WunderBlogs® & News

Nearby

Qualité de l'air

  Qualité de l'air Indice de la qualité de l'air Polluant
Not available.

Épaisseur de neige

Station Depth Altitude

Activité sismique

Ville Distance Mag. Time & Date
Minimum magnitude displayed is 2.5.

Températures des eaux côtières

Lieu Température

Stations

Stations météo à proximité

Emplacement de la station Température Refroidissement éolien Point de rosée Humidité Vent Precip. Alt. Mise à jour Type